sensor_id;sensor_type;location;lat;lon;timestamp;temperature;humidity
47168;DHT22;32931;47.778;17.806;2023-05-07T00:01:24;17.50;99.90
47168;DHT22;32931;47.778;17.806;2023-05-07T00:03:50;17.50;99.90
47168;DHT22;32931;47.778;17.806;2023-05-07T00:06:16;17.50;99.90
47168;DHT22;32931;47.778;17.806;2023-05-07T00:08:43;17.50;99.90
47168;DHT22;32931;47.778;17.806;2023-05-07T00:11:09;17.50;99.90
47168;DHT22;32931;47.778;17.806;2023-05-07T00:13:35;17.50;99.90
47168;DHT22;32931;47.778;17.806;2023-05-07T00:16:02;17.50;99.90
47168;DHT22;32931;47.778;17.806;2023-05-07T00:18:28;17.50;99.90
47168;DHT22;32931;47.778;17.806;2023-05-07T00:20:55;17.40;99.90
47168;DHT22;32931;47.778;17.806;2023-05-07T00:23:22;17.40;99.90
47168;DHT22;32931;47.778;17.806;2023-05-07T00:25:49;17.40;99.90
47168;DHT22;32931;47.778;17.806;2023-05-07T00:28:15;17.40;99.90
47168;DHT22;32931;47.778;17.806;2023-05-07T00:30:41;17.20;99.90
47168;DHT22;32931;47.778;17.806;2023-05-07T00:33:07;17.20;99.90
47168;DHT22;32931;47.778;17.806;2023-05-07T00:35:33;17.20;99.90
47168;DHT22;32931;47.778;17.806;2023-05-07T00:37:59;17.20;99.90
47168;DHT22;32931;47.778;17.806;2023-05-07T00:40:25;17.20;99.90
47168;DHT22;32931;47.778;17.806;2023-05-07T00:42:51;17.20;99.90
47168;DHT22;32931;47.778;17.806;2023-05-07T00:45:27;17.20;99.90
47168;DHT22;32931;47.778;17.806;2023-05-07T00:47:59;17.20;99.90
47168;DHT22;32931;47.778;17.806;2023-05-07T00:50:27;17.20;99.90
47168;DHT22;32931;47.778;17.806;2023-05-07T00:52:53;17.20;99.90
47168;DHT22;32931;47.778;17.806;2023-05-07T00:55:20;17.10;99.90
47168;DHT22;32931;47.778;17.806;2023-05-07T00:57:46;17.10;99.90
47168;DHT22;32931;47.778;17.806;2023-05-07T01:00:14;17.10;99.90
47168;DHT22;32931;47.778;17.806;2023-05-07T01:02:40;17.10;99.90
47168;DHT22;32931;47.778;17.806;2023-05-07T01:05:17;17.00;99.90
47168;DHT22;32931;47.778;17.806;2023-05-07T01:07:43;17.00;99.90
47168;DHT22;32931;47.778;17.806;2023-05-07T01:10:10;17.00;99.90
47168;DHT22;32931;47.778;17.806;2023-05-07T01:12:38;16.90;99.90
47168;DHT22;32931;47.778;17.806;2023-05-07T01:15:08;16.90;99.90
47168;DHT22;32931;47.778;17.806;2023-05-07T01:17:36;16.90;99.90
47168;DHT22;32931;47.778;17.806;2023-05-07T01:20:04;16.90;99.90
47168;DHT22;32931;47.778;17.806;2023-05-07T01:22:35;16.90;99.90
47168;DHT22;32931;47.778;17.806;2023-05-07T01:25:06;16.80;99.90
47168;DHT22;32931;47.778;17.806;2023-05-07T01:27:33;16.80;99.90
47168;DHT22;32931;47.778;17.806;2023-05-07T01:30:01;16.70;99.90
47168;DHT22;32931;47.778;17.806;2023-05-07T01:32:28;16.70;99.90
47168;DHT22;32931;47.778;17.806;2023-05-07T01:34:55;16.70;99.90
47168;DHT22;32931;47.778;17.806;2023-05-07T01:37:23;16.60;99.90
47168;DHT22;32931;47.778;17.806;2023-05-07T01:39:50;16.60;99.90
47168;DHT22;32931;47.778;17.806;2023-05-07T01:42:17;16.50;99.90
47168;DHT22;32931;47.778;17.806;2023-05-07T01:44:43;16.50;99.90
47168;DHT22;32931;47.778;17.806;2023-05-07T01:47:09;16.50;99.90
47168;DHT22;32931;47.778;17.806;2023-05-07T01:49:36;16.40;99.90
47168;DHT22;32931;47.778;17.806;2023-05-07T01:52:02;16.40;99.90
47168;DHT22;32931;47.778;17.806;2023-05-07T01:54:29;16.40;99.90
47168;DHT22;32931;47.778;17.806;2023-05-07T01:56:56;16.30;99.90
47168;DHT22;32931;47.778;17.806;2023-05-07T01:59:22;16.30;99.90
47168;DHT22;32931;47.778;17.806;2023-05-07T02:01:48;16.20;99.90
47168;DHT22;32931;47.778;17.806;2023-05-07T02:04:14;16.20;99.90
47168;DHT22;32931;47.778;17.806;2023-05-07T02:06:40;16.10;99.90
47168;DHT22;32931;47.778;17.806;2023-05-07T02:09:07;16.10;99.90
47168;DHT22;32931;47.778;17.806;2023-05-07T02:11:34;16.10;99.90
47168;DHT22;32931;47.778;17.806;2023-05-07T02:14:01;16.10;99.90
47168;DHT22;32931;47.778;17.806;2023-05-07T02:16:27;16.00;99.90
47168;DHT22;32931;47.778;17.806;2023-05-07T02:18:53;16.00;99.90
47168;DHT22;32931;47.778;17.806;2023-05-07T02:21:19;16.00;99.90
47168;DHT22;32931;47.778;17.806;2023-05-07T02:23:45;16.00;99.90
47168;DHT22;32931;47.778;17.806;2023-05-07T02:26:11;16.00;99.90
47168;DHT22;32931;47.778;17.806;2023-05-07T02:28:37;15.90;99.90
47168;DHT22;32931;47.778;17.806;2023-05-07T02:31:04;15.90;99.90
47168;DHT22;32931;47.778;17.806;2023-05-07T02:33:30;15.90;99.90
47168;DHT22;32931;47.778;17.806;2023-05-07T02:35:56;15.90;99.90
47168;DHT22;32931;47.778;17.806;2023-05-07T02:38:23;15.90;99.90
47168;DHT22;32931;47.778;17.806;2023-05-07T02:40:49;15.90;99.90
47168;DHT22;32931;47.778;17.806;2023-05-07T02:43:15;15.90;99.90
47168;DHT22;32931;47.778;17.806;2023-05-07T02:45:41;15.90;99.90
47168;DHT22;32931;47.778;17.806;2023-05-07T02:48:09;15.80;99.90
47168;DHT22;32931;47.778;17.806;2023-05-07T02:50:35;15.80;99.90
47168;DHT22;32931;47.778;17.806;2023-05-07T02:53:01;15.90;99.90
47168;DHT22;32931;47.778;17.806;2023-05-07T02:55:27;15.80;99.90
47168;DHT22;32931;47.778;17.806;2023-05-07T02:57:53;15.70;99.90
47168;DHT22;32931;47.778;17.806;2023-05-07T03:00:20;15.70;99.90
47168;DHT22;32931;47.778;17.806;2023-05-07T03:02:47;15.60;99.90
47168;DHT22;32931;47.778;17.806;2023-05-07T03:05:13;15.50;99.90
47168;DHT22;32931;47.778;17.806;2023-05-07T03:07:40;15.40;99.90
47168;DHT22;32931;47.778;17.806;2023-05-07T03:10:10;15.40;99.90
47168;DHT22;32931;47.778;17.806;2023-05-07T03:12:36;15.40;99.90
47168;DHT22;32931;47.778;17.806;2023-05-07T03:15:02;15.40;99.90
47168;DHT22;32931;47.778;17.806;2023-05-07T03:17:28;15.30;99.90
47168;DHT22;32931;47.778;17.806;2023-05-07T03:19:54;15.30;99.90
47168;DHT22;32931;47.778;17.806;2023-05-07T03:22:21;15.30;99.90
47168;DHT22;32931;47.778;17.806;2023-05-07T03:24:47;15.20;99.90
47168;DHT22;32931;47.778;17.806;2023-05-07T03:27:13;15.20;99.90
47168;DHT22;32931;47.778;17.806;2023-05-07T03:29:39;15.00;99.90
47168;DHT22;32931;47.778;17.806;2023-05-07T03:32:05;15.00;99.90
47168;DHT22;32931;47.778;17.806;2023-05-07T03:34:32;14.90;99.90
47168;DHT22;32931;47.778;17.806;2023-05-07T03:36:58;14.90;99.90
47168;DHT22;32931;47.778;17.806;2023-05-07T03:39:24;14.90;99.90
47168;DHT22;32931;47.778;17.806;2023-05-07T03:41:50;14.90;99.90
47168;DHT22;32931;47.778;17.806;2023-05-07T03:44:17;14.90;99.90
47168;DHT22;32931;47.778;17.806;2023-05-07T03:46:43;14.90;99.90
47168;DHT22;32931;47.778;17.806;2023-05-07T03:49:09;14.90;99.90
47168;DHT22;32931;47.778;17.806;2023-05-07T03:51:35;14.90;99.90
47168;DHT22;32931;47.778;17.806;2023-05-07T03:54:01;14.80;99.90
47168;DHT22;32931;47.778;17.806;2023-05-07T03:56:28;14.80;99.90
47168;DHT22;32931;47.778;17.806;2023-05-07T03:58:54;14.70;99.90
47168;DHT22;32931;47.778;17.806;2023-05-07T04:01:20;14.70;99.90
47168;DHT22;32931;47.778;17.806;2023-05-07T04:03:46;14.80;99.90
47168;DHT22;32931;47.778;17.806;2023-05-07T04:06:12;14.70;99.90
47168;DHT22;32931;47.778;17.806;2023-05-07T04:08:38;14.70;99.90
47168;DHT22;32931;47.778;17.806;2023-05-07T04:11:05;14.70;99.90
47168;DHT22;32931;47.778;17.806;2023-05-07T04:13:31;14.70;99.90
47168;DHT22;32931;47.778;17.806;2023-05-07T04:15:58;14.70;99.90
47168;DHT22;32931;47.778;17.806;2023-05-07T04:18:24;14.70;99.90
47168;DHT22;32931;47.778;17.806;2023-05-07T04:20:50;14.60;99.90
47168;DHT22;32931;47.778;17.806;2023-05-07T04:23:16;14.60;99.90
47168;DHT22;32931;47.778;17.806;2023-05-07T04:25:42;14.60;99.90
47168;DHT22;32931;47.778;17.806;2023-05-07T04:28:09;14.60;99.90
47168;DHT22;32931;47.778;17.806;2023-05-07T04:30:35;14.70;99.90
47168;DHT22;32931;47.778;17.806;2023-05-07T04:33:01;14.70;99.90
47168;DHT22;32931;47.778;17.806;2023-05-07T04:35:27;14.70;99.90
47168;DHT22;32931;47.778;17.806;2023-05-07T04:37:53;14.70;99.90
47168;DHT22;32931;47.778;17.806;2023-05-07T04:40:19;14.80;99.90
47168;DHT22;32931;47.778;17.806;2023-05-07T04:42:46;14.80;99.90
47168;DHT22;32931;47.778;17.806;2023-05-07T04:45:12;14.80;99.90
47168;DHT22;32931;47.778;17.806;2023-05-07T04:47:38;14.90;99.90
47168;DHT22;32931;47.778;17.806;2023-05-07T04:50:06;14.90;99.90
47168;DHT22;32931;47.778;17.806;2023-05-07T04:52:32;15.00;99.90
47168;DHT22;32931;47.778;17.806;2023-05-07T04:55:01;15.10;99.90
47168;DHT22;32931;47.778;17.806;2023-05-07T04:57:28;15.10;99.90
47168;DHT22;32931;47.778;17.806;2023-05-07T04:59:54;15.20;99.90
47168;DHT22;32931;47.778;17.806;2023-05-07T05:02:20;15.20;99.90
47168;DHT22;32931;47.778;17.806;2023-05-07T05:04:46;15.10;99.90
47168;DHT22;32931;47.778;17.806;2023-05-07T05:07:13;15.10;99.90
47168;DHT22;32931;47.778;17.806;2023-05-07T05:09:39;15.10;99.90
47168;DHT22;32931;47.778;17.806;2023-05-07T05:12:05;15.10;99.90
47168;DHT22;32931;47.778;17.806;2023-05-07T05:14:33;15.20;99.90
47168;DHT22;32931;47.778;17.806;2023-05-07T05:16:59;15.20;99.90
47168;DHT22;32931;47.778;17.806;2023-05-07T05:19:25;15.20;99.90
47168;DHT22;32931;47.778;17.806;2023-05-07T05:21:51;15.20;99.90
47168;DHT22;32931;47.778;17.806;2023-05-07T05:24:17;15.30;99.90
47168;DHT22;32931;47.778;17.806;2023-05-07T05:26:44;15.30;99.90
47168;DHT22;32931;47.778;17.806;2023-05-07T05:29:10;15.30;99.90
47168;DHT22;32931;47.778;17.806;2023-05-07T05:31:36;15.40;99.90
47168;DHT22;32931;47.778;17.806;2023-05-07T05:34:02;15.50;99.90
47168;DHT22;32931;47.778;17.806;2023-05-07T05:36:29;15.60;99.90
47168;DHT22;32931;47.778;17.806;2023-05-07T05:38:56;15.60;99.90
47168;DHT22;32931;47.778;17.806;2023-05-07T05:41:22;15.70;99.90
47168;DHT22;32931;47.778;17.806;2023-05-07T05:43:48;15.70;99.90
47168;DHT22;32931;47.778;17.806;2023-05-07T05:46:15;15.80;99.90
47168;DHT22;32931;47.778;17.806;2023-05-07T05:48:41;15.80;99.90
47168;DHT22;32931;47.778;17.806;2023-05-07T05:51:07;15.80;99.90
47168;DHT22;32931;47.778;17.806;2023-05-07T05:53:34;15.80;99.90
47168;DHT22;32931;47.778;17.806;2023-05-07T05:56:00;15.80;99.90
47168;DHT22;32931;47.778;17.806;2023-05-07T05:58:26;15.70;99.90
47168;DHT22;32931;47.778;17.806;2023-05-07T06:00:52;15.70;99.90
47168;DHT22;32931;47.778;17.806;2023-05-07T06:03:19;15.80;99.90
47168;DHT22;32931;47.778;17.806;2023-05-07T06:05:45;15.80;99.90
47168;DHT22;32931;47.778;17.806;2023-05-07T06:08:12;15.80;99.90
47168;DHT22;32931;47.778;17.806;2023-05-07T06:10:39;15.80;99.90
47168;DHT22;32931;47.778;17.806;2023-05-07T06:13:05;15.90;99.90
47168;DHT22;32931;47.778;17.806;2023-05-07T06:15:32;15.90;99.90
47168;DHT22;32931;47.778;17.806;2023-05-07T06:17:58;16.00;99.90
47168;DHT22;32931;47.778;17.806;2023-05-07T06:20:24;16.00;99.90
47168;DHT22;32931;47.778;17.806;2023-05-07T06:22:50;16.00;99.90
47168;DHT22;32931;47.778;17.806;2023-05-07T06:25:16;16.00;99.90
47168;DHT22;32931;47.778;17.806;2023-05-07T06:27:42;16.00;99.90
47168;DHT22;32931;47.778;17.806;2023-05-07T06:30:09;16.00;99.90
47168;DHT22;32931;47.778;17.806;2023-05-07T06:32:36;16.00;99.90
47168;DHT22;32931;47.778;17.806;2023-05-07T06:35:03;16.00;99.90
47168;DHT22;32931;47.778;17.806;2023-05-07T06:37:29;16.10;99.90
47168;DHT22;32931;47.778;17.806;2023-05-07T06:39:55;16.20;99.90
47168;DHT22;32931;47.778;17.806;2023-05-07T06:42:21;16.20;99.90
47168;DHT22;32931;47.778;17.806;2023-05-07T06:44:47;16.30;99.90
47168;DHT22;32931;47.778;17.806;2023-05-07T06:47:13;16.30;99.90
47168;DHT22;32931;47.778;17.806;2023-05-07T06:49:39;16.40;99.90
47168;DHT22;32931;47.778;17.806;2023-05-07T06:52:06;16.40;99.90
47168;DHT22;32931;47.778;17.806;2023-05-07T06:54:32;16.50;99.90
47168;DHT22;32931;47.778;17.806;2023-05-07T06:56:58;16.40;99.90
47168;DHT22;32931;47.778;17.806;2023-05-07T06:59:24;16.50;99.90
47168;DHT22;32931;47.778;17.806;2023-05-07T07:01:50;16.60;99.90
47168;DHT22;32931;47.778;17.806;2023-05-07T07:04:16;16.50;99.90
47168;DHT22;32931;47.778;17.806;2023-05-07T07:06:43;16.60;99.90
47168;DHT22;32931;47.778;17.806;2023-05-07T07:09:09;16.70;99.90
47168;DHT22;32931;47.778;17.806;2023-05-07T07:11:35;16.80;99.90
47168;DHT22;32931;47.778;17.806;2023-05-07T07:14:01;16.90;99.90
47168;DHT22;32931;47.778;17.806;2023-05-07T07:16:28;17.00;99.90
47168;DHT22;32931;47.778;17.806;2023-05-07T07:18:54;17.10;99.90
47168;DHT22;32931;47.778;17.806;2023-05-07T07:21:20;17.30;99.90
47168;DHT22;32931;47.778;17.806;2023-05-07T07:23:46;17.40;99.90
47168;DHT22;32931;47.778;17.806;2023-05-07T07:26:12;17.50;99.90
47168;DHT22;32931;47.778;17.806;2023-05-07T07:28:45;17.60;99.90
47168;DHT22;32931;47.778;17.806;2023-05-07T07:31:12;17.60;99.90
47168;DHT22;32931;47.778;17.806;2023-05-07T07:33:38;17.60;99.90
47168;DHT22;32931;47.778;17.806;2023-05-07T07:36:05;17.70;99.90
47168;DHT22;32931;47.778;17.806;2023-05-07T07:38:32;17.70;99.90
47168;DHT22;32931;47.778;17.806;2023-05-07T07:40:59;17.90;99.90
47168;DHT22;32931;47.778;17.806;2023-05-07T07:43:25;17.90;99.90
47168;DHT22;32931;47.778;17.806;2023-05-07T07:45:51;18.10;99.90
47168;DHT22;32931;47.778;17.806;2023-05-07T07:48:18;18.10;99.90
47168;DHT22;32931;47.778;17.806;2023-05-07T07:50:44;18.20;99.90
47168;DHT22;32931;47.778;17.806;2023-05-07T07:53:10;18.20;99.90
47168;DHT22;32931;47.778;17.806;2023-05-07T07:55:39;18.20;99.90
47168;DHT22;32931;47.778;17.806;2023-05-07T07:58:06;18.20;99.90
47168;DHT22;32931;47.778;17.806;2023-05-07T08:00:32;18.30;99.90
47168;DHT22;32931;47.778;17.806;2023-05-07T08:02:58;18.30;99.90
47168;DHT22;32931;47.778;17.806;2023-05-07T08:05:24;18.50;99.90
47168;DHT22;32931;47.778;17.806;2023-05-07T08:07:51;18.60;99.90
47168;DHT22;32931;47.778;17.806;2023-05-07T08:10:19;18.70;99.90
47168;DHT22;32931;47.778;17.806;2023-05-07T08:12:50;18.80;99.90
47168;DHT22;32931;47.778;17.806;2023-05-07T08:15:17;19.00;99.90
47168;DHT22;32931;47.778;17.806;2023-05-07T08:17:43;19.10;99.90
47168;DHT22;32931;47.778;17.806;2023-05-07T08:20:10;19.20;99.90
47168;DHT22;32931;47.778;17.806;2023-05-07T08:22:36;19.30;99.90
47168;DHT22;32931;47.778;17.806;2023-05-07T08:25:03;19.50;99.90
47168;DHT22;32931;47.778;17.806;2023-05-07T08:27:29;19.50;99.90
47168;DHT22;32931;47.778;17.806;2023-05-07T08:29:55;19.60;99.90
47168;DHT22;32931;47.778;17.806;2023-05-07T08:32:22;19.60;99.90
47168;DHT22;32931;47.778;17.806;2023-05-07T08:34:48;19.60;99.90
47168;DHT22;32931;47.778;17.806;2023-05-07T08:37:14;19.60;99.90
47168;DHT22;32931;47.778;17.806;2023-05-07T08:39:40;19.70;99.90
47168;DHT22;32931;47.778;17.806;2023-05-07T08:42:07;19.70;99.90
47168;DHT22;32931;47.778;17.806;2023-05-07T08:44:35;19.70;99.90
47168;DHT22;32931;47.778;17.806;2023-05-07T08:47:01;19.80;99.90
47168;DHT22;32931;47.778;17.806;2023-05-07T08:49:28;19.80;99.90
47168;DHT22;32931;47.778;17.806;2023-05-07T08:51:55;20.00;99.90
47168;DHT22;32931;47.778;17.806;2023-05-07T08:54:21;20.10;99.90
47168;DHT22;32931;47.778;17.806;2023-05-07T08:56:48;20.20;99.90
47168;DHT22;32931;47.778;17.806;2023-05-07T08:59:14;20.30;99.90
47168;DHT22;32931;47.778;17.806;2023-05-07T09:01:40;20.50;99.90
47168;DHT22;32931;47.778;17.806;2023-05-07T09:04:07;20.50;99.90
47168;DHT22;32931;47.778;17.806;2023-05-07T09:06:34;20.60;99.90
47168;DHT22;32931;47.778;17.806;2023-05-07T09:09:00;20.70;99.90
47168;DHT22;32931;47.778;17.806;2023-05-07T09:11:27;20.80;99.90
47168;DHT22;32931;47.778;17.806;2023-05-07T09:13:57;20.80;99.90
47168;DHT22;32931;47.778;17.806;2023-05-07T09:16:26;20.90;99.90
47168;DHT22;32931;47.778;17.806;2023-05-07T09:18:53;21.00;99.90
47168;DHT22;32931;47.778;17.806;2023-05-07T09:21:21;21.00;99.90
47168;DHT22;32931;47.778;17.806;2023-05-07T09:23:50;21.10;99.90
47168;DHT22;32931;47.778;17.806;2023-05-07T09:26:17;21.00;99.90
47168;DHT22;32931;47.778;17.806;2023-05-07T09:28:44;21.00;99.90
47168;DHT22;32931;47.778;17.806;2023-05-07T09:31:12;21.10;99.90
47168;DHT22;32931;47.778;17.806;2023-05-07T09:33:39;21.10;99.90
47168;DHT22;32931;47.778;17.806;2023-05-07T09:36:06;21.10;99.90
47168;DHT22;32931;47.778;17.806;2023-05-07T09:38:34;21.00;99.90
47168;DHT22;32931;47.778;17.806;2023-05-07T09:41:11;21.10;99.90
47168;DHT22;32931;47.778;17.806;2023-05-07T09:43:39;21.20;99.90
47168;DHT22;32931;47.778;17.806;2023-05-07T09:46:12;21.20;99.90
47168;DHT22;32931;47.778;17.806;2023-05-07T09:48:40;21.30;99.90
47168;DHT22;32931;47.778;17.806;2023-05-07T09:51:34;21.30;99.90
47168;DHT22;32931;47.778;17.806;2023-05-07T09:53:58;21.40;99.90
47168;DHT22;32931;47.778;17.806;2023-05-07T09:56:26;21.50;99.90
47168;DHT22;32931;47.778;17.806;2023-05-07T09:58:54;21.50;99.90
47168;DHT22;32931;47.778;17.806;2023-05-07T10:01:22;21.60;99.90
47168;DHT22;32931;47.778;17.806;2023-05-07T10:03:51;21.70;99.90
47168;DHT22;32931;47.778;17.806;2023-05-07T10:06:20;21.80;99.90
47168;DHT22;32931;47.778;17.806;2023-05-07T10:08:46;21.80;99.90
47168;DHT22;32931;47.778;17.806;2023-05-07T10:11:13;21.90;99.90
47168;DHT22;32931;47.778;17.806;2023-05-07T10:13:42;21.90;99.90
47168;DHT22;32931;47.778;17.806;2023-05-07T10:16:08;22.00;99.90
47168;DHT22;32931;47.778;17.806;2023-05-07T10:18:34;22.10;99.90
47168;DHT22;32931;47.778;17.806;2023-05-07T10:21:21;22.10;99.90
47168;DHT22;32931;47.778;17.806;2023-05-07T10:23:50;22.20;99.90
47168;DHT22;32931;47.778;17.806;2023-05-07T10:26:20;22.20;99.90
47168;DHT22;32931;47.778;17.806;2023-05-07T10:28:55;22.20;99.90
47168;DHT22;32931;47.778;17.806;2023-05-07T10:31:50;22.20;99.90
47168;DHT22;32931;47.778;17.806;2023-05-07T10:34:24;22.30;99.90
47168;DHT22;32931;47.778;17.806;2023-05-07T10:36:52;22.30;99.90
47168;DHT22;32931;47.778;17.806;2023-05-07T10:39:20;22.30;99.90
47168;DHT22;32931;47.778;17.806;2023-05-07T10:41:48;22.30;99.90
47168;DHT22;32931;47.778;17.806;2023-05-07T10:44:30;22.30;99.90
47168;DHT22;32931;47.778;17.806;2023-05-07T10:47:14;22.40;99.90
47168;DHT22;32931;47.778;17.806;2023-05-07T10:52:18;22.30;99.30
47168;DHT22;32931;47.778;17.806;2023-05-07T10:54:45;22.30;99.30
47168;DHT22;32931;47.778;17.806;2023-05-07T10:59:56;22.50;99.50
47168;DHT22;32931;47.778;17.806;2023-05-07T11:02:23;22.70;99.20
47168;DHT22;32931;47.778;17.806;2023-05-07T11:05:18;22.70;98.70
47168;DHT22;32931;47.778;17.806;2023-05-07T11:07:54;22.80;96.70
47168;DHT22;32931;47.778;17.806;2023-05-07T11:10:21;22.90;97.00
47168;DHT22;32931;47.778;17.806;2023-05-07T11:12:48;23.00;97.60
47168;DHT22;32931;47.778;17.806;2023-05-07T11:15:15;23.00;98.00
47168;DHT22;32931;47.778;17.806;2023-05-07T11:17:58;23.10;97.30
47168;DHT22;32931;47.778;17.806;2023-05-07T11:20:50;23.10;97.30
47168;DHT22;32931;47.778;17.806;2023-05-07T11:26:08;23.30;95.40
47168;DHT22;32931;47.778;17.806;2023-05-07T11:28:39;23.40;96.60
47168;DHT22;32931;47.778;17.806;2023-05-07T11:31:05;23.50;95.90
47168;DHT22;32931;47.778;17.806;2023-05-07T11:33:32;23.60;96.30
47168;DHT22;32931;47.778;17.806;2023-05-07T11:36:00;23.60;96.90
47168;DHT22;32931;47.778;17.806;2023-05-07T11:38:27;23.80;96.20
47168;DHT22;32931;47.778;17.806;2023-05-07T11:40:58;23.90;96.30
47168;DHT22;32931;47.778;17.806;2023-05-07T11:43:27;24.00;96.00
47168;DHT22;32931;47.778;17.806;2023-05-07T11:45:53;24.00;96.00
47168;DHT22;32931;47.778;17.806;2023-05-07T11:48:20;24.10;96.10
47168;DHT22;32931;47.778;17.806;2023-05-07T11:53:19;24.40;96.50
47168;DHT22;32931;47.778;17.806;2023-05-07T11:55:46;24.50;96.10
47168;DHT22;32931;47.778;17.806;2023-05-07T11:58:18;24.60;96.10
47168;DHT22;32931;47.778;17.806;2023-05-07T12:00:53;24.70;95.50
47168;DHT22;32931;47.778;17.806;2023-05-07T12:03:20;25.00;95.50
47168;DHT22;32931;47.778;17.806;2023-05-07T12:05:47;25.10;94.50
47168;DHT22;32931;47.778;17.806;2023-05-07T12:08:17;25.30;94.20
47168;DHT22;32931;47.778;17.806;2023-05-07T12:10:45;25.40;93.30
47168;DHT22;32931;47.778;17.806;2023-05-07T12:13:22;25.10;93.40
47168;DHT22;32931;47.778;17.806;2023-05-07T12:15:55;24.70;92.20
47168;DHT22;32931;47.778;17.806;2023-05-07T12:18:23;24.70;93.40
47168;DHT22;32931;47.778;17.806;2023-05-07T12:20:49;24.80;94.30
47168;DHT22;32931;47.778;17.806;2023-05-07T12:23:16;25.00;94.20
47168;DHT22;32931;47.778;17.806;2023-05-07T12:25:43;25.00;94.00
47168;DHT22;32931;47.778;17.806;2023-05-07T12:28:14;25.20;94.40
47168;DHT22;32931;47.778;17.806;2023-05-07T12:30:42;25.40;94.40
47168;DHT22;32931;47.778;17.806;2023-05-07T12:33:09;25.40;93.20
47168;DHT22;32931;47.778;17.806;2023-05-07T12:35:42;25.50;92.80
47168;DHT22;32931;47.778;17.806;2023-05-07T12:38:14;25.70;93.30
47168;DHT22;32931;47.778;17.806;2023-05-07T12:40:43;25.90;92.70
47168;DHT22;32931;47.778;17.806;2023-05-07T12:43:24;26.10;92.40
47168;DHT22;32931;47.778;17.806;2023-05-07T12:45:53;26.40;91.60
47168;DHT22;32931;47.778;17.806;2023-05-07T12:48:20;26.50;91.70
47168;DHT22;32931;47.778;17.806;2023-05-07T12:50:51;26.60;91.00
47168;DHT22;32931;47.778;17.806;2023-05-07T12:53:20;26.50;90.00
47168;DHT22;32931;47.778;17.806;2023-05-07T12:55:52;26.40;90.80
47168;DHT22;32931;47.778;17.806;2023-05-07T12:58:26;26.30;90.80
47168;DHT22;32931;47.778;17.806;2023-05-07T13:00:53;26.20;91.30
47168;DHT22;32931;47.778;17.806;2023-05-07T13:03:33;26.20;90.60
47168;DHT22;32931;47.778;17.806;2023-05-07T13:06:10;26.10;90.70
47168;DHT22;32931;47.778;17.806;2023-05-07T13:08:39;26.00;88.10
47168;DHT22;32931;47.778;17.806;2023-05-07T13:11:09;26.00;90.40
47168;DHT22;32931;47.778;17.806;2023-05-07T13:13:37;26.00;89.10
47168;DHT22;32931;47.778;17.806;2023-05-07T13:16:05;25.80;89.10
47168;DHT22;32931;47.778;17.806;2023-05-07T13:18:33;25.80;90.00
47168;DHT22;32931;47.778;17.806;2023-05-07T13:21:00;25.70;89.60
47168;DHT22;32931;47.778;17.806;2023-05-07T13:23:27;25.70;89.20
47168;DHT22;32931;47.778;17.806;2023-05-07T13:25:54;25.60;89.90
47168;DHT22;32931;47.778;17.806;2023-05-07T13:28:22;25.60;89.80
47168;DHT22;32931;47.778;17.806;2023-05-07T13:30:48;25.50;89.30
47168;DHT22;32931;47.778;17.806;2023-05-07T13:33:14;25.40;88.50
47168;DHT22;32931;47.778;17.806;2023-05-07T13:35:41;25.30;88.00
47168;DHT22;32931;47.778;17.806;2023-05-07T13:38:08;25.40;88.20
47168;DHT22;32931;47.778;17.806;2023-05-07T13:40:34;25.50;89.00
47168;DHT22;32931;47.778;17.806;2023-05-07T13:43:00;25.50;87.90
47168;DHT22;32931;47.778;17.806;2023-05-07T13:45:31;25.40;87.10
47168;DHT22;32931;47.778;17.806;2023-05-07T13:47:57;25.50;87.90
47168;DHT22;32931;47.778;17.806;2023-05-07T13:50:24;25.60;87.20
47168;DHT22;32931;47.778;17.806;2023-05-07T13:52:50;25.80;86.20
47168;DHT22;32931;47.778;17.806;2023-05-07T13:55:17;25.90;85.00
47168;DHT22;32931;47.778;17.806;2023-05-07T13:57:44;25.80;84.10
47168;DHT22;32931;47.778;17.806;2023-05-07T14:00:11;25.80;84.70
47168;DHT22;32931;47.778;17.806;2023-05-07T14:02:37;25.60;83.90
47168;DHT22;32931;47.778;17.806;2023-05-07T14:05:04;25.80;84.40
47168;DHT22;32931;47.778;17.806;2023-05-07T14:07:30;26.00;84.60
47168;DHT22;32931;47.778;17.806;2023-05-07T14:09:57;26.40;84.40
47168;DHT22;32931;47.778;17.806;2023-05-07T14:12:23;26.70;83.80
47168;DHT22;32931;47.778;17.806;2023-05-07T14:14:50;27.00;82.80
47168;DHT22;32931;47.778;17.806;2023-05-07T14:17:17;27.10;81.30
47168;DHT22;32931;47.778;17.806;2023-05-07T14:19:43;27.10;79.30
47168;DHT22;32931;47.778;17.806;2023-05-07T14:22:09;27.10;78.30
47168;DHT22;32931;47.778;17.806;2023-05-07T14:24:36;27.00;78.70
47168;DHT22;32931;47.778;17.806;2023-05-07T14:27:02;26.80;78.10
47168;DHT22;32931;47.778;17.806;2023-05-07T14:29:28;26.60;77.90
47168;DHT22;32931;47.778;17.806;2023-05-07T14:31:54;26.50;77.80
47168;DHT22;32931;47.778;17.806;2023-05-07T14:34:21;26.40;78.20
47168;DHT22;32931;47.778;17.806;2023-05-07T14:36:47;26.40;77.70
47168;DHT22;32931;47.778;17.806;2023-05-07T14:39:13;26.50;76.80
47168;DHT22;32931;47.778;17.806;2023-05-07T14:41:39;26.70;76.40
47168;DHT22;32931;47.778;17.806;2023-05-07T14:44:05;26.90;76.80
47168;DHT22;32931;47.778;17.806;2023-05-07T14:46:31;27.10;76.30
47168;DHT22;32931;47.778;17.806;2023-05-07T14:48:58;27.20;74.90
47168;DHT22;32931;47.778;17.806;2023-05-07T14:51:24;27.40;75.20
47168;DHT22;32931;47.778;17.806;2023-05-07T14:53:51;27.60;75.40
47168;DHT22;32931;47.778;17.806;2023-05-07T14:56:17;27.60;74.10
47168;DHT22;32931;47.778;17.806;2023-05-07T14:58:45;27.60;72.90
47168;DHT22;32931;47.778;17.806;2023-05-07T15:01:12;27.80;73.60
47168;DHT22;32931;47.778;17.806;2023-05-07T15:03:38;27.80;72.70
47168;DHT22;32931;47.778;17.806;2023-05-07T15:06:05;27.90;72.60
47168;DHT22;32931;47.778;17.806;2023-05-07T15:08:31;27.90;72.70
47168;DHT22;32931;47.778;17.806;2023-05-07T15:10:57;27.90;71.90
47168;DHT22;32931;47.778;17.806;2023-05-07T15:13:23;27.90;71.60
47168;DHT22;32931;47.778;17.806;2023-05-07T15:15:49;27.90;71.00
47168;DHT22;32931;47.778;17.806;2023-05-07T15:18:16;27.90;70.20
47168;DHT22;32931;47.778;17.806;2023-05-07T15:20:42;27.90;70.20
47168;DHT22;32931;47.778;17.806;2023-05-07T15:23:09;27.90;69.60
47168;DHT22;32931;47.778;17.806;2023-05-07T15:25:39;27.90;69.20
47168;DHT22;32931;47.778;17.806;2023-05-07T15:28:06;27.80;68.50